Terminal Aerodrome Forecast
Issued by NWS

Home | Current Version | Previous Version | Text Only | Print | Product List | Glossary On
Versions: 1 2 3 4 5 6 7 8 9 10 11 12 13 14 15 16 17 18 19 20 21 22 23 24 25 26 27 28 29 30 31 32 33 34 35 36 37 38 39 40 41 42 43 44 45
000
FTUS41 KRNK 301543 AAB
TAFBCB
TAF AMD
KBCB 301543Z 3016/3112 11007KT 5SM BR OVC003
      TEMPO 3016/3018 OVC015
     FM301900 13008KT P6SM VCSH OVC010
     FM310000 14007KT P6SM OVC020
     FM310300 12006KT 4SM -SHRA OVC015
     FM310600 12005KT 3SM SHRA OVC010
     FM311100 14007KT 2SM SHRA OVC007=

USA.gov is the U.S. government's official web portal to all federal, state and local government web resources and services.